Time;durP1;ratioP1;P1;durP2;ratioP2;P2;SDS_P1;SDS_P2;PMS_P1;PMS_P2;Temp;Humidity;BMP_temperature;BMP_pressure;BME280_temperature;BME280_humidity;BME280_pressure;Samples;Min_cycle;Max_cycle;Signal;HPM_P1;HPM_P2
2021/06/03 00:02:08;;;;;;;7.40;6.77;;;13.90;99.90;;;;;;5048674;28;20650;-49
2021/06/03 00:04:34;;;;;;;7.43;6.83;;;13.90;99.90;;;;;;5048609;28;20957;-53
2021/06/03 00:07:00;;;;;;;7.37;6.67;;;13.90;99.90;;;;;;5048131;28;20438;-48
2021/06/03 00:09:27;;;;;;;7.20;6.60;;;13.90;99.90;;;;;;5048413;28;20199;-48
2021/06/03 00:11:52;;;;;;;7.73;7.13;;;13.90;99.90;;;;;;5048817;28;20209;-50
2021/06/03 00:14:19;;;;;;;7.67;7.07;;;13.80;99.90;;;;;;5046590;28;20955;-50
2021/06/03 00:16:45;;;;;;;7.47;6.67;;;13.80;99.90;;;;;;5044704;28;20222;-48
2021/06/03 00:19:12;;;;;;;8.47;7.67;;;13.80;99.90;;;;;;5048958;28;20534;-48
2021/06/03 00:21:40;;;;;;;8.57;7.27;;;13.70;99.90;;;;;;5047618;28;20918;-49
2021/06/03 00:24:07;;;;;;;7.60;7.00;;;13.70;99.90;;;;;;5048302;28;20458;-49
2021/06/03 00:26:36;;;;;;;7.80;7.20;;;13.70;99.90;;;;;;5048953;28;20436;-49
2021/06/03 00:29:03;;;;;;;8.17;7.37;;;13.80;99.90;;;;;;5047963;28;20456;-46
2021/06/03 00:31:29;;;;;;;8.47;7.77;;;13.70;99.90;;;;;;5048983;28;20963;-50
2021/06/03 00:33:54;;;;;;;8.63;7.93;;;13.70;99.90;;;;;;5048255;28;20442;-47
2021/06/03 00:36:20;;;;;;;8.10;7.40;;;13.70;99.90;;;;;;5049396;28;20185;-51
2021/06/03 00:38:46;;;;;;;7.40;6.90;;;13.70;99.90;;;;;;5049212;28;20266;-52
2021/06/03 00:41:14;;;;;;;8.20;7.50;;;13.70;99.90;;;;;;5048486;28;20191;-50
2021/06/03 00:43:40;;;;;;;8.70;7.83;;;13.70;99.90;;;;;;5047884;28;20560;-46
2021/06/03 00:46:06;;;;;;;7.70;7.00;;;13.60;99.90;;;;;;5048767;28;20437;-51
2021/06/03 00:48:32;;;;;;;8.10;7.50;;;13.60;99.90;;;;;;5048310;28;20440;-50
2021/06/03 00:51:00;;;;;;;8.57;7.70;;;13.60;99.90;;;;;;5048285;28;20183;-49
2021/06/03 00:53:27;;;;;;;8.20;7.50;;;13.60;99.90;;;;;;5047102;28;20515;-50
2021/06/03 00:55:56;;;;;;;8.00;7.20;;;13.50;99.90;;;;;;5048331;28;20874;-50
2021/06/03 00:58:22;;;;;;;8.60;7.80;;;13.60;99.90;;;;;;5044452;28;20463;-49
2021/06/03 01:00:50;;;;;;;8.50;7.80;;;13.50;99.90;;;;;;5048724;28;20935;-48
2021/06/03 01:03:17;;;;;;;8.27;7.57;;;13.60;99.90;;;;;;5047588;28;20436;-51
2021/06/03 01:05:52;;;;;;;8.57;7.87;;;13.50;99.90;;;;;;5048604;28;20490;-48
2021/06/03 01:08:24;;;;;;;8.37;7.70;;;13.60;99.90;;;;;;5048042;28;20555;-46
2021/06/03 01:11:22;;;;;;;7.90;7.30;;;13.50;99.90;;;;;;5046499;28;20523;-46
2021/06/03 01:14:16;;;;;;;8.17;7.50;;;13.50;99.90;;;;;;5046488;28;20425;-50
2021/06/03 01:16:42;;;;;;;8.43;7.77;;;13.50;99.90;;;;;;5048853;28;20436;-52
2021/06/03 01:19:13;;;;;;;8.40;7.50;;;13.50;99.90;;;;;;5052817;28;20927;-49
2021/06/03 01:21:41;;;;;;;8.87;7.63;;;13.40;99.90;;;;;;5051746;28;20455;-53
2021/06/03 01:24:23;;;;;;;8.37;7.77;;;13.40;99.90;;;;;;5052882;28;20416;-51
2021/06/03 01:26:51;;;;;;;9.33;7.93;;;13.40;99.90;;;;;;5052462;28;20618;-46
2021/06/03 01:29:18;;;;;;;8.63;7.93;;;13.40;99.90;;;;;;5051696;28;20771;-47
2021/06/03 01:31:46;;;;;;;9.03;8.23;;;13.40;99.90;;;;;;5052698;28;20497;-47
2021/06/03 01:34:12;;;;;;;8.37;7.60;;;13.40;99.90;;;;;;5052486;28;20471;-52
2021/06/03 01:36:38;;;;;;;9.17;8.23;;;13.30;99.90;;;;;;5049947;28;20483;-49
2021/06/03 01:39:07;;;;;;;8.83;8.13;;;13.30;99.90;;;;;;5051900;28;20923;-52
2021/06/03 01:41:33;;;;;;;9.30;8.50;;;13.40;99.90;;;;;;5052820;28;20419;-49
2021/06/03 01:44:00;;;;;;;8.67;7.97;;;13.40;99.90;;;;;;5051365;28;20451;-51
2021/06/03 01:46:26;;;;;;;8.57;7.87;;;13.30;99.90;;;;;;5052285;28;20986;-50
2021/06/03 01:48:56;;;;;;;8.57;7.67;;;13.30;99.90;;;;;;5052062;28;20437;-52
2021/06/03 01:51:22;;;;;;;8.37;7.67;;;13.30;99.90;;;;;;5051531;28;20996;-48
2021/06/03 01:53:47;;;;;;;8.57;7.50;;;13.30;99.90;;;;;;5051614;28;20473;-52
2021/06/03 01:56:15;;;;;;;8.63;7.90;;;13.30;99.90;;;;;;5051748;28;20914;-52
2021/06/03 01:58:41;;;;;;;9.07;8.27;;;13.30;99.90;;;;;;5048773;28;20214;-51
2021/06/03 02:01:07;;;;;;;9.03;8.23;;;13.30;99.90;;;;;;5047917;28;20470;-46
2021/06/03 02:03:34;;;;;;;8.60;7.90;;;13.30;99.90;;;;;;5052098;28;20995;-54
2021/06/03 02:05:59;;;;;;;8.40;7.70;;;13.30;99.90;;;;;;5050968;28;20433;-47
2021/06/03 02:08:25;;;;;;;8.83;8.13;;;13.30;99.90;;;;;;5044426;28;20534;-50
2021/06/03 02:10:51;;;;;;;9.10;8.40;;;13.30;99.90;;;;;;5049178;28;20275;-47
2021/06/03 02:13:20;;;;;;;9.20;8.17;;;13.20;99.90;;;;;;5049879;28;20174;-51
2021/06/03 02:15:56;;;;;;;8.50;7.80;;;13.20;99.90;;;;;;5051257;28;20432;-49
2021/06/03 02:18:28;;;;;;;8.27;7.63;;;13.20;99.90;;;;;;5050397;28;20543;-54
2021/06/03 02:20:56;;;;;;;9.00;8.20;;;13.20;99.90;;;;;;5051248;28;20422;-52
2021/06/03 02:23:24;;;;;;;8.40;7.67;;;13.20;99.90;;;;;;5049559;28;20424;-50
2021/06/03 02:25:50;;;;;;;9.53;8.60;;;13.20;99.90;;;;;;5051575;28;20709;-47
2021/06/03 02:28:16;;;;;;;9.67;8.60;;;13.20;99.90;;;;;;5049701;28;20468;-54
2021/06/03 02:30:42;;;;;;;8.60;7.90;;;13.20;99.90;;;;;;5051024;28;20433;-52
2021/06/03 02:33:08;;;;;;;8.90;8.13;;;13.20;99.90;;;;;;5051382;28;20182;-50
2021/06/03 02:35:34;;;;;;;8.90;8.10;;;13.20;99.90;;;;;;5051284;28;20821;-49
2021/06/03 02:37:59;;;;;;;8.47;7.77;;;13.20;99.90;;;;;;5050793;28;20538;-50
2021/06/03 02:40:29;;;;;;;8.47;7.77;;;13.20;99.90;;;;;;5051378;28;20508;-52
2021/06/03 02:42:55;;;;;;;8.20;7.50;;;13.30;99.90;;;;;;5048348;28;20188;-47
2021/06/03 02:45:32;;;;;;;8.63;7.93;;;13.30;99.90;;;;;;5049064;28;20444;-48
2021/06/03 02:47:59;;;;;;;8.47;7.77;;;13.30;99.90;;;;;;5050741;28;20463;-50
2021/06/03 02:50:27;;;;;;;9.10;8.20;;;13.40;99.90;;;;;;5051260;28;20475;-51
2021/06/03 02:52:53;;;;;;;9.17;7.67;;;13.50;99.90;;;;;;5050006;28;20473;-49
2021/06/03 02:55:21;;;;;;;8.60;7.80;;;13.50;99.90;;;;;;5049969;28;20512;-49
2021/06/03 02:57:47;;;;;;;8.40;7.50;;;13.50;99.90;;;;;;5050797;28;20531;-53
2021/06/03 03:00:17;;;;;;;9.33;7.80;;;13.60;99.90;;;;;;5049945;28;20519;-51
2021/06/03 03:02:43;;;;;;;8.70;7.90;;;13.60;99.90;;;;;;5050997;28;20750;-51
2021/06/03 03:05:09;;;;;;;8.60;7.80;;;13.60;99.90;;;;;;5048968;28;20474;-53
2021/06/03 03:07:35;;;;;;;9.13;8.23;;;13.60;99.90;;;;;;5042505;28;20475;-50
2021/06/03 03:10:06;;;;;;;8.30;7.47;;;13.70;99.90;;;;;;5047710;28;20429;-51
2021/06/03 03:12:32;;;;;;;7.97;7.37;;;13.70;99.90;;;;;;5040115;28;20532;-48
2021/06/03 03:14:57;;;;;;;8.50;7.90;;;13.80;99.90;;;;;;5048787;28;20532;-51
2021/06/03 03:17:23;;;;;;;7.90;7.30;;;13.90;99.90;;;;;;5039529;28;20799;-48
2021/06/03 03:19:48;;;;;;;8.87;8.17;;;14.00;99.90;;;;;;5050207;28;20195;-51
2021/06/03 03:22:14;;;;;;;8.37;7.53;;;14.00;99.90;;;;;;5045662;28;20182;-47
2021/06/03 03:24:40;;;;;;;8.00;7.40;;;14.10;99.90;;;;;;5050304;28;20703;-49
2021/06/03 03:27:06;;;;;;;11.67;7.70;;;14.20;99.90;;;;;;5052751;28;20209;-51
2021/06/03 03:29:31;;;;;;;7.90;7.20;;;14.30;99.90;;;;;;5050477;28;20290;-49
2021/06/03 03:31:57;;;;;;;7.87;7.13;;;14.50;99.90;;;;;;5050149;28;20435;-50
2021/06/03 03:34:22;;;;;;;8.10;7.40;;;14.60;99.90;;;;;;5049692;28;20189;-51
2021/06/03 03:36:48;;;;;;;7.57;6.97;;;14.80;99.90;;;;;;5059163;28;20576;-49
2021/06/03 03:39:14;;;;;;;8.47;7.70;;;14.90;99.90;;;;;;5050081;28;20244;-52
2021/06/03 03:41:39;;;;;;;8.03;7.23;;;15.00;99.90;;;;;;5041425;28;20664;-52
2021/06/03 03:44:05;;;;;;;8.50;7.80;;;15.00;99.90;;;;;;5047943;28;20216;-48
2021/06/03 03:46:31;;;;;;;7.90;7.30;;;15.10;99.90;;;;;;5048177;28;20190;-51
2021/06/03 03:48:56;;;;;;;8.50;7.80;;;15.20;99.70;;;;;;5047836;28;20436;-48
2021/06/03 03:51:23;;;;;;;8.17;7.43;;;15.30;99.40;;;;;;5047183;28;20188;-48
2021/06/03 03:53:48;;;;;;;8.67;7.90;;;15.40;99.10;;;;;;5048714;28;20715;-52
2021/06/03 03:56:14;;;;;;;8.30;7.60;;;15.40;98.60;;;;;;5049682;28;20432;-47
2021/06/03 03:58:42;;;;;;;8.30;7.60;;;15.40;98.40;;;;;;5048108;28;20198;-51
2021/06/03 04:01:14;;;;;;;8.90;8.10;;;15.50;98.40;;;;;;5106026;27;20303;-50
2021/06/03 04:03:40;;;;;;;9.50;7.23;;;15.50;98.20;;;;;;5084984;28;21090;-51
2021/06/03 04:06:07;;;;;;;8.47;7.67;;;15.60;98.10;;;;;;5086248;28;20438;-47
2021/06/03 04:08:33;;;;;;;8.20;7.50;;;15.50;97.80;;;;;;5082438;28;20172;-47
2021/06/03 04:10:59;;;;;;;8.60;7.87;;;15.60;97.60;;;;;;5084979;28;20458;-49
2021/06/03 04:13:25;;;;;;;8.90;7.97;;;15.60;97.70;;;;;;5084548;28;20418;-51
2021/06/03 04:15:51;;;;;;;8.20;7.60;;;15.70;97.90;;;;;;5084439;28;20434;-47
2021/06/03 04:18:16;;;;;;;7.57;6.90;;;15.70;97.80;;;;;;5076274;28;20439;-47
2021/06/03 04:20:42;;;;;;;7.53;6.93;;;15.70;97.60;;;;;;5075832;28;20199;-49
2021/06/03 04:23:08;;;;;;;8.63;7.80;;;15.80;97.40;;;;;;5077113;28;20202;-50
2021/06/03 04:25:33;;;;;;;10.20;8.20;;;15.90;97.30;;;;;;5075139;28;20276;-47
2021/06/03 04:28:00;;;;;;;8.80;8.10;;;16.00;97.00;;;;;;5076234;28;20264;-48
2021/06/03 04:30:27;;;;;;;9.37;8.57;;;16.10;96.70;;;;;;5076513;28;20200;-51
2021/06/03 04:32:53;;;;;;;8.37;7.67;;;16.10;96.70;;;;;;5075972;28;21586;-52
2021/06/03 04:35:21;;;;;;;8.80;8.00;;;16.10;96.20;;;;;;5076535;28;20430;-50
2021/06/03 04:37:47;;;;;;;9.00;8.10;;;16.20;96.20;;;;;;5076902;28;20629;-49
2021/06/03 04:40:15;;;;;;;8.43;7.70;;;16.30;95.90;;;;;;5067079;28;20555;-50
2021/06/03 04:42:41;;;;;;;7.97;7.37;;;16.40;95.90;;;;;;5075797;28;20475;-50
2021/06/03 04:45:08;;;;;;;9.80;8.20;;;16.40;95.50;;;;;;5084272;28;20468;-49
2021/06/03 04:47:34;;;;;;;7.73;7.13;;;16.40;95.50;;;;;;5084327;28;20263;-50
2021/06/03 04:49:59;;;;;;;8.30;7.50;;;16.50;95.00;;;;;;5085124;28;20571;-51
2021/06/03 04:52:26;;;;;;;9.20;7.20;;;16.50;95.00;;;;;;5084977;28;20476;-50
2021/06/03 04:55:02;;;;;;;8.40;7.80;;;16.60;94.90;;;;;;5083915;28;20192;-46
2021/06/03 04:57:28;;;;;;;7.93;7.33;;;16.60;94.50;;;;;;5084744;28;20514;-51
2021/06/03 04:59:54;;;;;;;8.63;7.83;;;16.60;94.50;;;;;;5085254;28;20473;-51
2021/06/03 05:02:21;;;;;;;8.43;7.83;;;16.70;94.60;;;;;;5084688;28;20471;-47
2021/06/03 05:04:48;;;;;;;8.87;8.17;;;16.70;94.40;;;;;;5084992;28;20437;-50
2021/06/03 05:07:14;;;;;;;8.30;7.67;;;16.70;94.20;;;;;;5084670;28;20969;-50
2021/06/03 05:09:40;;;;;;;8.23;7.53;;;16.70;94.10;;;;;;5083902;28;20552;-47
2021/06/03 05:12:07;;;;;;;7.93;7.23;;;16.80;94.30;;;;;;5073466;28;20254;-50
2021/06/03 05:14:33;;;;;;;7.60;7.10;;;16.80;94.10;;;;;;5072077;28;20421;-51
2021/06/03 05:16:59;;;;;;;8.30;7.60;;;16.90;94.00;;;;;;5071553;28;20479;-50
2021/06/03 05:19:24;;;;;;;8.30;7.50;;;16.90;94.10;;;;;;5071197;28;20434;-51
2021/06/03 05:21:50;;;;;;;7.70;7.00;;;16.90;94.00;;;;;;5071844;28;20430;-51
2021/06/03 05:24:16;;;;;;;9.63;7.43;;;17.10;93.60;;;;;;5066498;28;20189;-51
2021/06/03 05:26:42;;;;;;;8.33;7.63;;;17.20;93.70;;;;;;5070958;28;20555;-49
2021/06/03 05:29:13;;;;;;;7.97;7.43;;;17.20;93.60;;;;;;5071201;28;20533;-49
2021/06/03 05:31:39;;;;;;;8.10;7.40;;;17.20;93.70;;;;;;5062688;28;20164;-51
2021/06/03 05:34:05;;;;;;;8.10;7.50;;;17.20;93.40;;;;;;5071441;28;20421;-48
2021/06/03 05:36:30;;;;;;;8.03;7.40;;;17.30;93.30;;;;;;5071388;28;20184;-51
2021/06/03 05:38:56;;;;;;;7.73;7.13;;;17.30;93.30;;;;;;5070191;28;20241;-50
2021/06/03 05:41:21;;;;;;;8.07;7.37;;;17.40;93.30;;;;;;5071025;28;20563;-50
2021/06/03 05:43:47;;;;;;;8.07;7.47;;;17.40;93.00;;;;;;5071517;28;20238;-49
2021/06/03 05:46:12;;;;;;;8.00;7.40;;;17.50;93.20;;;;;;5071073;28;20182;-49
2021/06/03 05:48:38;;;;;;;8.33;7.10;;;17.50;92.90;;;;;;5070063;28;20669;-49
2021/06/03 05:51:04;;;;;;;8.00;7.30;;;17.60;92.80;;;;;;5065073;28;20227;-51
2021/06/03 05:53:29;;;;;;;8.40;7.53;;;17.60;92.70;;;;;;5069181;28;20219;-51
2021/06/03 05:55:55;;;;;;;8.10;7.33;;;17.70;92.70;;;;;;5070353;28;20707;-51
2021/06/03 05:58:20;;;;;;;8.50;7.80;;;17.80;92.80;;;;;;5070131;28;20181;-52
2021/06/03 06:00:46;;;;;;;7.10;6.50;;;17.80;92.80;;;;;;5070348;28;20236;-51
2021/06/03 06:03:20;;;;;;;7.93;7.23;;;17.90;92.70;;;;;;5070349;28;20196;-49
2021/06/03 06:06:10;;;;;;;8.00;7.40;;;17.90;92.20;;;;;;5070354;28;20276;-51
2021/06/03 06:08:37;;;;;;;7.50;7.00;;;18.00;92.30;;;;;;5059212;28;20511;-53
2021/06/03 06:11:02;;;;;;;8.10;7.40;;;18.00;92.60;;;;;;5070349;28;20482;-50
2021/06/03 06:13:28;;;;;;;8.33;7.63;;;18.10;91.90;;;;;;5070300;28;21096;-50
2021/06/03 06:15:54;;;;;;;8.30;7.60;;;18.20;92.00;;;;;;5070584;28;20425;-52
2021/06/03 06:18:20;;;;;;;7.90;7.20;;;18.20;92.10;;;;;;5064887;28;20297;-47
2021/06/03 06:20:45;;;;;;;8.17;7.53;;;18.20;92.20;;;;;;5069125;28;20927;-48
2021/06/03 06:23:14;;;;;;;8.53;7.83;;;18.30;92.30;;;;;;5068114;28;20185;-52
2021/06/03 06:25:42;;;;;;;9.03;8.23;;;18.30;91.80;;;;;;5069346;28;20181;-51
2021/06/03 06:28:08;;;;;;;7.77;7.23;;;18.40;92.00;;;;;;5069134;28;20435;-47
2021/06/03 06:30:34;;;;;;;8.20;7.60;;;18.40;92.20;;;;;;5068636;28;20643;-51
2021/06/03 06:33:00;;;;;;;8.27;7.67;;;18.50;92.30;;;;;;5069536;28;20542;-46
2021/06/03 06:35:25;;;;;;;8.10;7.60;;;18.60;92.00;;;;;;5069125;28;20445;-46
2021/06/03 06:37:51;;;;;;;9.70;8.17;;;18.60;91.90;;;;;;5069102;28;21053;-46
2021/06/03 06:40:17;;;;;;;7.90;7.40;;;18.70;91.90;;;;;;5068902;28;20230;-48
2021/06/03 06:42:43;;;;;;;9.03;8.00;;;18.80;91.60;;;;;;5068954;28;20416;-49
2021/06/03 06:45:09;;;;;;;8.17;7.40;;;18.90;91.70;;;;;;5068868;28;20419;-51
2021/06/03 06:47:36;;;;;;;8.23;7.43;;;18.90;91.80;;;;;;5068495;28;20188;-53
2021/06/03 06:50:05;;;;;;;9.40;7.50;;;19.00;91.60;;;;;;5068906;28;20454;-53
2021/06/03 06:52:31;;;;;;;8.03;7.43;;;19.10;91.50;;;;;;5068304;28;20400;-50
2021/06/03 06:54:56;;;;;;;7.90;7.30;;;19.20;91.30;;;;;;5068895;28;20428;-46
2021/06/03 06:57:22;;;;;;;7.83;7.23;;;19.20;91.30;;;;;;5068025;28;20212;-48
2021/06/03 06:59:47;;;;;;;7.87;7.37;;;19.30;91.20;;;;;;5063659;28;20217;-46
2021/06/03 07:02:13;;;;;;;8.20;7.53;;;19.50;91.00;;;;;;5068060;28;20212;-47
2021/06/03 07:04:38;;;;;;;8.93;8.10;;;19.60;90.70;;;;;;5066833;28;20181;-51
2021/06/03 07:07:04;;;;;;;7.73;7.13;;;19.70;90.80;;;;;;5068613;28;20192;-48
2021/06/03 07:09:29;;;;;;;7.63;6.93;;;19.80;90.20;;;;;;5067306;28;20233;-46
2021/06/03 07:11:55;;;;;;;7.90;7.30;;;19.90;90.00;;;;;;5068741;28;20187;-50
2021/06/03 07:14:20;;;;;;;7.93;7.30;;;20.00;89.70;;;;;;5067823;28;20605;-50
2021/06/03 07:16:46;;;;;;;7.97;7.37;;;20.00;89.90;;;;;;5067348;28;20180;-50
2021/06/03 07:19:11;;;;;;;8.83;7.53;;;20.10;88.90;;;;;;5068252;28;20213;-52
2021/06/03 07:21:37;;;;;;;7.97;7.23;;;20.30;88.90;;;;;;5068449;28;20878;-49
2021/06/03 07:24:03;;;;;;;8.40;7.70;;;20.30;88.20;;;;;;5068065;28;20188;-50
2021/06/03 07:26:29;;;;;;;8.00;7.40;;;20.40;88.10;;;;;;5068207;28;20252;-45
2021/06/03 07:28:54;;;;;;;7.97;7.37;;;20.50;88.50;;;;;;5068311;28;20507;-49
2021/06/03 07:31:20;;;;;;;8.33;7.50;;;20.60;86.40;;;;;;5067613;28;20185;-55
2021/06/03 07:33:46;;;;;;;8.80;7.93;;;20.70;86.70;;;;;;5067605;28;20592;-53
2021/06/03 07:36:12;;;;;;;8.63;7.80;;;20.80;86.80;;;;;;5067266;28;20190;-50
2021/06/03 07:38:39;;;;;;;8.90;8.20;;;21.00;85.60;;;;;;5067642;28;20420;-49
2021/06/03 07:41:05;;;;;;;8.80;8.10;;;21.10;84.50;;;;;;5068387;28;20427;-50
2021/06/03 07:43:31;;;;;;;8.03;7.43;;;21.20;84.10;;;;;;5066004;28;20434;-54
2021/06/03 07:45:57;;;;;;;9.30;7.07;;;21.20;82.20;;;;;;5067494;28;20199;-51
2021/06/03 07:48:23;;;;;;;8.60;7.97;;;21.30;82.00;;;;;;5067548;28;20431;-48
2021/06/03 07:50:49;;;;;;;7.60;7.00;;;21.40;82.40;;;;;;5067893;28;20459;-51
2021/06/03 07:53:15;;;;;;;7.87;7.30;;;21.60;82.50;;;;;;5067679;28;20231;-48
2021/06/03 07:55:41;;;;;;;8.57;7.53;;;21.70;81.10;;;;;;5067375;28;20454;-45
2021/06/03 07:58:10;;;;;;;8.50;7.90;;;21.80;80.80;;;;;;5067823;28;20566;-52
2021/06/03 08:00:36;;;;;;;8.17;7.67;;;22.00;79.80;;;;;;5067442;28;20642;-45
2021/06/03 08:03:03;;;;;;;7.90;7.30;;;22.10;79.00;;;;;;5068265;28;20433;-52
2021/06/03 08:05:29;;;;;;;7.60;7.10;;;22.30;78.50;;;;;;5066904;28;20500;-51
2021/06/03 08:07:56;;;;;;;7.83;7.33;;;22.50;78.40;;;;;;5068280;28;20913;-52
2021/06/03 08:10:26;;;;;;;7.80;7.20;;;22.60;76.30;;;;;;5068140;28;20466;-49
2021/06/03 08:12:53;;;;;;;8.07;7.57;;;22.90;76.60;;;;;;5066290;28;20431;-47
2021/06/03 08:15:20;;;;;;;8.43;7.77;;;23.00;74.30;;;;;;5067732;28;20482;-53
2021/06/03 08:17:46;;;;;;;8.07;7.57;;;23.20;74.90;;;;;;5064046;28;20432;-47
2021/06/03 08:20:15;;;;;;;7.73;7.00;;;23.30;71.00;;;;;;5054657;28;20495;-49
2021/06/03 08:22:42;;;;;;;8.40;7.60;;;23.50;72.40;;;;;;5066290;28;20210;-51
2021/06/03 08:25:08;;;;;;;7.37;6.87;;;23.70;73.10;;;;;;5068038;28;20435;-47
2021/06/03 08:27:34;;;;;;;7.40;7.00;;;23.90;70.40;;;;;;5067418;28;21000;-48
2021/06/03 08:30:00;;;;;;;7.67;7.03;;;24.00;67.30;;;;;;5067928;28;20546;-48
2021/06/03 08:32:26;;;;;;;8.13;7.53;;;24.10;68.70;;;;;;5067104;28;20186;-47
2021/06/03 08:34:51;;;;;;;8.33;7.80;;;24.30;65.80;;;;;;5068027;28;20745;-47
2021/06/03 08:37:17;;;;;;;7.60;7.07;;;24.40;63.00;;;;;;5067945;28;20603;-50
2021/06/03 08:39:43;;;;;;;7.80;7.20;;;24.60;63.70;;;;;;5068174;28;20856;-48
2021/06/03 08:42:11;;;;;;;7.37;6.90;;;24.70;61.00;;;;;;5066770;28;20639;-50
2021/06/03 08:44:38;;;;;;;7.87;7.13;;;24.80;60.00;;;;;;5068068;28;20392;-52
2021/06/03 08:47:04;;;;;;;8.40;7.60;;;25.00;59.70;;;;;;5068234;28;20534;-49
2021/06/03 08:49:29;;;;;;;7.60;7.00;;;25.10;58.60;;;;;;5062362;28;21104;-52
2021/06/03 08:52:02;;;;;;;6.93;6.43;;;25.20;57.60;;;;;;5067406;28;21105;-46
2021/06/03 08:54:31;;;;;;;6.90;6.30;;;25.40;55.80;;;;;;5070874;28;20185;-47
2021/06/03 08:56:57;;;;;;;7.60;7.10;;;25.60;56.60;;;;;;5069572;28;20431;-50
2021/06/03 08:59:23;;;;;;;7.13;6.63;;;25.80;55.10;;;;;;5070520;28;21030;-46
2021/06/03 09:01:48;;;;;;;6.53;6.03;;;26.00;54.50;;;;;;5069618;28;20191;-48
2021/06/03 09:04:14;;;;;;;6.73;6.23;;;26.40;52.50;;;;;;5070079;28;20205;-50
2021/06/03 09:06:39;;;;;;;6.93;6.43;;;26.70;51.80;;;;;;5071260;28;20192;-47
2021/06/03 09:09:06;;;;;;;6.97;6.57;;;26.70;49.80;;;;;;5070211;28;20254;-49
2021/06/03 09:11:32;;;;;;;7.30;6.80;;;27.00;48.00;;;;;;5071159;28;20207;-51
2021/06/03 09:14:04;;;;;;;6.93;6.53;;;27.40;45.80;;;;;;5068879;28;20434;-47
2021/06/03 09:16:36;;;;;;;6.63;6.10;;;27.70;45.00;;;;;;5070961;28;20490;-48
2021/06/03 09:19:08;;;;;;;7.00;6.30;;;27.90;42.50;;;;;;5069841;28;20418;-49
2021/06/03 09:21:39;;;;;;;6.60;6.20;;;28.20;42.00;;;;;;5069794;28;20746;-47
2021/06/03 09:24:10;;;;;;;6.53;6.10;;;28.40;38.50;;;;;;5069396;28;20431;-48
2021/06/03 09:27:00;;;;;;;6.83;6.33;;;28.80;38.30;;;;;;5069306;28;20431;-46
2021/06/03 09:29:27;;;;;;;6.93;6.37;;;29.40;39.70;;;;;;5069169;28;20808;-49
2021/06/03 09:32:00;;;;;;;6.87;6.47;;;30.00;37.80;;;;;;5070857;28;20423;-47
2021/06/03 09:34:26;;;;;;;6.60;6.23;;;30.60;35.70;;;;;;5070166;28;20416;-50
2021/06/03 09:36:58;;;;;;;6.70;6.30;;;31.10;32.20;;;;;;5070007;28;20426;-52
2021/06/03 09:39:29;;;;;;;6.67;6.27;;;31.30;31.50;;;;;;5070706;28;20189;-46
2021/06/03 09:42:04;;;;;;;6.87;6.47;;;31.70;31.70;;;;;;5070527;28;20432;-50
2021/06/03 09:44:37;;;;;;;6.20;5.80;;;32.10;30.00;;;;;;5068118;28;20584;-48
2021/06/03 09:47:08;;;;;;;7.00;5.87;;;32.70;29.80;;;;;;5070176;28;20783;-50
2021/06/03 09:49:42;;;;;;;6.50;6.17;;;33.20;27.90;;;;;;5070053;28;20486;-50
2021/06/03 09:52:13;;;;;;;5.83;5.53;;;33.60;28.40;;;;;;5069008;28;20471;-50
2021/06/03 09:54:40;;;;;;;5.93;5.63;;;34.00;27.30;;;;;;5069908;28;20446;-50
2021/06/03 09:57:09;;;;;;;6.93;6.43;;;34.50;25.60;;;;;;5066339;28;20451;-48
2021/06/03 09:59:41;;;;;;;6.20;5.90;;;34.90;25.50;;;;;;5070228;28;20495;-47
2021/06/03 10:02:12;;;;;;;6.07;5.77;;;34.90;25.00;;;;;;5070254;28;20480;-48
2021/06/03 10:04:54;;;;;;;6.30;6.00;;;34.70;25.10;;;;;;5069926;28;20981;-46
2021/06/03 10:07:20;;;;;;;6.30;6.00;;;35.00;25.10;;;;;;5058448;28;21229;-52
2021/06/03 10:09:47;;;;;;;7.03;6.43;;;35.00;24.60;;;;;;5069284;28;20477;-52
2021/06/03 10:12:29;;;;;;;6.60;6.30;;;35.40;23.50;;;;;;5067979;28;20181;-48
2021/06/03 10:14:57;;;;;;;6.03;5.63;;;36.00;23.10;;;;;;5068973;28;20415;-46
2021/06/03 10:17:30;;;;;;;6.30;5.80;;;35.60;22.80;;;;;;5069502;28;20865;-49
2021/06/03 10:20:01;;;;;;;6.53;6.13;;;36.00;23.40;;;;;;5069008;28;20935;-47
2021/06/03 10:22:28;;;;;;;6.50;6.10;;;36.10;23.00;;;;;;5069030;28;20419;-49
2021/06/03 10:25:02;;;;;;;6.97;6.37;;;36.10;22.80;;;;;;5067694;28;20439;-51
2021/06/03 10:27:35;;;;;;;6.40;6.03;;;36.30;22.80;;;;;;5067157;28;20426;-48
2021/06/03 10:30:08;;;;;;;6.03;5.73;;;36.70;21.40;;;;;;5064115;28;21004;-49
2021/06/03 10:32:34;;;;;;;6.03;5.73;;;36.70;21.30;;;;;;5068006;28;20400;-47
2021/06/03 10:35:00;;;;;;;6.63;6.23;;;37.00;20.70;;;;;;5067958;28;20411;-49
2021/06/03 10:37:27;;;;;;;6.53;6.23;;;37.00;20.90;;;;;;5067893;28;20435;-49
2021/06/03 10:39:55;;;;;;;6.83;6.43;;;37.20;21.30;;;;;;5067632;28;20426;-53
2021/06/03 10:42:22;;;;;;;6.57;6.17;;;37.20;20.50;;;;;;5066232;28;20427;-48
2021/06/03 10:44:50;;;;;;;6.10;5.80;;;37.20;19.10;;;;;;5067545;28;20576;-50
2021/06/03 10:47:16;;;;;;;6.50;6.20;;;37.20;20.00;;;;;;5066119;28;20469;-52
2021/06/03 10:49:43;;;;;;;6.73;6.33;;;37.70;19.50;;;;;;5068021;28;20955;-51
2021/06/03 10:52:11;;;;;;;6.10;5.70;;;38.00;19.40;;;;;;5067130;28;20427;-52
2021/06/03 10:54:44;;;;;;;22.37;6.50;;;38.20;19.40;;;;;;5068478;28;20473;-50
2021/06/03 10:57:11;;;;;;;6.43;6.13;;;38.20;19.10;;;;;;5068031;28;20642;-48
2021/06/03 10:59:38;;;;;;;6.17;5.87;;;37.80;19.80;;;;;;5068459;28;20506;-48
2021/06/03 11:02:07;;;;;;;6.43;6.13;;;37.80;19.00;;;;;;5067695;28;20485;-46
2021/06/03 11:04:33;;;;;;;7.03;6.63;;;37.90;18.90;;;;;;5067599;28;20480;-50
2021/06/03 11:06:59;;;;;;;6.80;6.30;;;38.20;18.40;;;;;;5068484;28;21081;-52
2021/06/03 11:09:27;;;;;;;6.80;6.43;;;38.30;18.90;;;;;;5067927;28;20455;-49
2021/06/03 11:12:19;;;;;;;6.23;5.90;;;38.20;19.40;;;;;;5068267;28;20208;-50
2021/06/03 11:15:13;;;;;;;6.40;6.10;;;38.00;18.80;;;;;;5064093;28;20412;-49
2021/06/03 11:17:56;;;;;;;6.43;6.03;;;38.00;19.70;;;;;;5059442;28;20422;-52
2021/06/03 11:20:36;;;;;;;7.00;6.60;;;38.50;18.90;;;;;;5067976;28;20463;-50
2021/06/03 11:23:34;;;;;;;7.10;6.80;;;38.70;18.70;;;;;;5068051;28;20472;-50
2021/06/03 11:26:04;;;;;;;6.23;5.93;;;39.00;19.10;;;;;;5067936;28;20944;-48
2021/06/03 11:28:30;;;;;;;6.67;6.37;;;39.10;19.70;;;;;;5068163;28;20420;-51
2021/06/03 11:31:16;;;;;;;6.97;6.57;;;39.00;18.90;;;;;;5068605;28;20407;-48
2021/06/03 11:34:05;;;;;;;6.40;6.10;;;39.30;18.40;;;;;;5068079;28;20228;-50
2021/06/03 11:36:31;;;;;;;6.70;6.10;;;38.80;18.60;;;;;;5068286;28;20768;-50
2021/06/03 11:38:57;;;;;;;6.60;6.30;;;39.30;18.10;;;;;;5068158;28;20519;-48
2021/06/03 11:41:37;;;;;;;6.80;6.40;;;39.00;18.80;;;;;;5068106;28;20631;-51
2021/06/03 11:44:07;;;;;;;6.63;6.23;;;39.00;18.10;;;;;;5067790;28;20181;-48
2021/06/03 11:46:51;;;;;;;7.23;6.80;;;39.40;17.90;;;;;;5067768;28;21039;-48
2021/06/03 11:49:37;;;;;;;7.00;6.70;;;39.30;17.60;;;;;;5067495;28;20525;-51
2021/06/03 11:52:14;;;;;;;7.30;6.83;;;39.70;18.00;;;;;;5068155;28;20447;-50
2021/06/03 11:54:54;;;;;;;7.10;6.80;;;39.80;16.90;;;;;;5067832;28;20446;-51
2021/06/03 11:57:22;;;;;;;7.23;6.83;;;39.40;17.70;;;;;;5067814;28;21091;-48
2021/06/03 11:59:56;;;;;;;7.83;7.23;;;38.10;18.30;;;;;;5067618;28;20517;-53
2021/06/03 12:02:39;;;;;;;6.80;6.40;;;38.30;18.80;;;;;;5069137;28;20415;-49
2021/06/03 12:05:11;;;;;;;6.97;6.53;;;38.20;19.50;;;;;;5058318;28;20430;-51
2021/06/03 12:07:51;;;;;;;6.50;6.20;;;38.80;18.50;;;;;;5068249;28;20199;-48
2021/06/03 12:10:20;;;;;;;6.73;6.43;;;38.70;19.00;;;;;;5069927;28;20458;-50
2021/06/03 12:12:45;;;;;;;6.80;6.40;;;38.70;18.10;;;;;;5068709;28;20936;-47
2021/06/03 12:15:25;;;;;;;7.30;6.90;;;38.40;19.00;;;;;;5069781;28;20431;-52
2021/06/03 12:17:56;;;;;;;7.30;6.90;;;38.10;18.70;;;;;;5069416;28;20189;-46
2021/06/03 12:20:21;;;;;;;7.35;6.95;;;37.90;18.70;;;;;;5070053;28;20462;-47
2021/06/03 12:22:48;;;;;;;7.40;7.00;;;37.60;19.10;;;;;;5072519;28;20301;-47
2021/06/03 12:25:14;;;;;;;8.03;7.53;;;36.90;19.50;;;;;;5073362;28;20191;-52
2021/06/03 12:27:45;;;;;;;7.50;7.10;;;36.30;20.50;;;;;;5073452;28;20473;-47
2021/06/03 12:30:24;;;;;;;8.53;8.03;;;35.80;21.40;;;;;;5073012;28;20438;-46
2021/06/03 12:33:12;;;;;;;7.97;7.47;;;35.50;22.10;;;;;;5072810;28;20438;-50
2021/06/03 12:35:46;;;;;;;8.63;7.93;;;34.90;22.60;;;;;;5070267;28;20512;-50
2021/06/03 12:38:38;;;;;;;7.67;7.27;;;34.70;22.10;;;;;;5072127;28;20421;-49
2021/06/03 12:41:21;;;;;;;7.80;7.23;;;34.50;23.10;;;;;;5070813;28;20470;-49
2021/06/03 12:43:52;;;;;;;8.13;7.70;;;34.60;23.50;;;;;;5070514;28;20415;-47
2021/06/03 12:46:18;;;;;;;7.40;7.00;;;34.60;23.10;;;;;;5060371;28;20875;-49
2021/06/03 12:48:44;;;;;;;7.60;7.00;;;34.10;23.70;;;;;;5071816;28;20450;-50
2021/06/03 12:51:13;;;;;;;7.50;7.00;;;33.70;23.80;;;;;;5072471;28;20614;-46
2021/06/03 12:53:46;;;;;;;7.47;6.97;;;33.40;23.40;;;;;;5073042;28;20422;-49